sensor_id;sensor_type;location;lat;lon;timestamp;temperature;humidity
23579;DHT22;11967;50.852;4.400;2024-03-08T00:00:17;11.50;99.90
23579;DHT22;11967;50.852;4.400;2024-03-08T00:02:47;11.50;99.90
23579;DHT22;11967;50.852;4.400;2024-03-08T00:05:13;11.60;99.90
23579;DHT22;11967;50.852;4.400;2024-03-08T00:07:40;11.50;99.90
23579;DHT22;11967;50.852;4.400;2024-03-08T00:10:08;11.40;99.90
23579;DHT22;11967;50.852;4.400;2024-03-08T00:12:40;11.50;99.90
23579;DHT22;11967;50.852;4.400;2024-03-08T00:15:13;11.50;99.90
23579;DHT22;11967;50.852;4.400;2024-03-08T00:17:42;11.60;99.90
23579;DHT22;11967;50.852;4.400;2024-03-08T00:20:10;11.40;99.90
23579;DHT22;11967;50.852;4.400;2024-03-08T00:22:36;11.30;99.90
23579;DHT22;11967;50.852;4.400;2024-03-08T00:25:03;11.30;99.90
23579;DHT22;11967;50.852;4.400;2024-03-08T00:27:29;11.20;99.90
23579;DHT22;11967;50.852;4.400;2024-03-08T00:29:56;11.30;99.90
23579;DHT22;11967;50.852;4.400;2024-03-08T00:32:22;11.20;99.90
23579;DHT22;11967;50.852;4.400;2024-03-08T00:34:50;11.20;99.90
23579;DHT22;11967;50.852;4.400;2024-03-08T00:37:20;11.20;99.90
23579;DHT22;11967;50.852;4.400;2024-03-08T00:39:50;11.20;99.90
23579;DHT22;11967;50.852;4.400;2024-03-08T00:42:19;11.20;99.90
23579;DHT22;11967;50.852;4.400;2024-03-08T00:44:45;11.20;99.90
23579;DHT22;11967;50.852;4.400;2024-03-08T00:47:11;11.30;99.90
23579;DHT22;11967;50.852;4.400;2024-03-08T00:49:37;11.30;99.90
23579;DHT22;11967;50.852;4.400;2024-03-08T00:52:05;11.20;99.90
23579;DHT22;11967;50.852;4.400;2024-03-08T00:54:34;11.10;99.90
23579;DHT22;11967;50.852;4.400;2024-03-08T00:57:01;11.20;99.90
23579;DHT22;11967;50.852;4.400;2024-03-08T00:59:29;11.20;99.90
23579;DHT22;11967;50.852;4.400;2024-03-08T01:01:54;11.20;99.90
23579;DHT22;11967;50.852;4.400;2024-03-08T01:04:20;11.20;99.90
23579;DHT22;11967;50.852;4.400;2024-03-08T01:06:47;11.20;99.90
23579;DHT22;11967;50.852;4.400;2024-03-08T01:09:13;11.20;99.90
23579;DHT22;11967;50.852;4.400;2024-03-08T01:11:43;11.10;99.90
23579;DHT22;11967;50.852;4.400;2024-03-08T01:14:08;11.10;99.90
23579;DHT22;11967;50.852;4.400;2024-03-08T01:16:34;11.00;99.90
23579;DHT22;11967;50.852;4.400;2024-03-08T01:19:00;11.00;99.90
23579;DHT22;11967;50.852;4.400;2024-03-08T01:21:26;11.00;99.90
23579;DHT22;11967;50.852;4.400;2024-03-08T01:23:51;11.10;99.90
23579;DHT22;11967;50.852;4.400;2024-03-08T01:26:18;11.00;99.90
23579;DHT22;11967;50.852;4.400;2024-03-08T01:28:43;11.00;99.90
23579;DHT22;11967;50.852;4.400;2024-03-08T01:31:09;11.10;99.90
23579;DHT22;11967;50.852;4.400;2024-03-08T01:36:57;11.10;99.90
23579;DHT22;11967;50.852;4.400;2024-03-08T01:39:24;10.90;99.90
23579;DHT22;11967;50.852;4.400;2024-03-08T01:41:50;10.90;99.90
23579;DHT22;11967;50.852;4.400;2024-03-08T01:44:16;10.90;99.90
23579;DHT22;11967;50.852;4.400;2024-03-08T01:46:47;11.00;99.90
23579;DHT22;11967;50.852;4.400;2024-03-08T01:49:14;10.90;99.90
23579;DHT22;11967;50.852;4.400;2024-03-08T01:51:41;10.90;99.90
23579;DHT22;11967;50.852;4.400;2024-03-08T01:54:07;10.90;99.90
23579;DHT22;11967;50.852;4.400;2024-03-08T01:56:35;11.00;99.90
23579;DHT22;11967;50.852;4.400;2024-03-08T01:59:05;10.90;99.90
23579;DHT22;11967;50.852;4.400;2024-03-08T02:01:33;10.90;99.90
23579;DHT22;11967;50.852;4.400;2024-03-08T02:03:59;10.90;99.90
23579;DHT22;11967;50.852;4.400;2024-03-08T02:06:24;10.90;99.90
23579;DHT22;11967;50.852;4.400;2024-03-08T02:08:50;10.80;99.90
23579;DHT22;11967;50.852;4.400;2024-03-08T02:11:16;10.70;99.90
23579;DHT22;11967;50.852;4.400;2024-03-08T02:13:42;10.70;99.90
23579;DHT22;11967;50.852;4.400;2024-03-08T02:16:08;10.70;99.90
23579;DHT22;11967;50.852;4.400;2024-03-08T02:18:34;10.80;99.90
23579;DHT22;11967;50.852;4.400;2024-03-08T02:21:01;10.80;99.90
23579;DHT22;11967;50.852;4.400;2024-03-08T02:23:28;10.70;99.90
23579;DHT22;11967;50.852;4.400;2024-03-08T02:25:55;10.70;99.90
23579;DHT22;11967;50.852;4.400;2024-03-08T02:28:24;10.70;99.90
23579;DHT22;11967;50.852;4.400;2024-03-08T02:30:54;10.70;99.90
23579;DHT22;11967;50.852;4.400;2024-03-08T02:33:22;10.60;99.90
23579;DHT22;11967;50.852;4.400;2024-03-08T02:35:48;10.60;99.90
23579;DHT22;11967;50.852;4.400;2024-03-08T02:38:18;10.60;99.90
23579;DHT22;11967;50.852;4.400;2024-03-08T02:40:45;10.40;99.90
23579;DHT22;11967;50.852;4.400;2024-03-08T02:43:12;10.50;99.90
23579;DHT22;11967;50.852;4.400;2024-03-08T02:45:38;10.60;99.90
23579;DHT22;11967;50.852;4.400;2024-03-08T02:48:04;10.50;99.90
23579;DHT22;11967;50.852;4.400;2024-03-08T02:50:32;10.50;99.90
23579;DHT22;11967;50.852;4.400;2024-03-08T02:52:57;10.50;99.90
23579;DHT22;11967;50.852;4.400;2024-03-08T02:55:23;10.60;99.90
23579;DHT22;11967;50.852;4.400;2024-03-08T02:57:51;10.60;99.90
23579;DHT22;11967;50.852;4.400;2024-03-08T03:00:18;10.50;99.90
23579;DHT22;11967;50.852;4.400;2024-03-08T03:02:45;10.50;99.90
23579;DHT22;11967;50.852;4.400;2024-03-08T03:05:11;10.50;99.90
23579;DHT22;11967;50.852;4.400;2024-03-08T03:07:37;10.40;99.90
23579;DHT22;11967;50.852;4.400;2024-03-08T03:10:04;10.50;99.90
23579;DHT22;11967;50.852;4.400;2024-03-08T03:12:31;10.40;99.90
23579;DHT22;11967;50.852;4.400;2024-03-08T03:15:00;10.40;99.90
23579;DHT22;11967;50.852;4.400;2024-03-08T03:17:26;10.30;99.90
23579;DHT22;11967;50.852;4.400;2024-03-08T03:19:55;10.40;99.90
23579;DHT22;11967;50.852;4.400;2024-03-08T03:22:21;10.30;99.90
23579;DHT22;11967;50.852;4.400;2024-03-08T03:24:46;10.20;99.90
23579;DHT22;11967;50.852;4.400;2024-03-08T03:27:24;10.20;99.90
23579;DHT22;11967;50.852;4.400;2024-03-08T03:29:52;10.20;99.90
23579;DHT22;11967;50.852;4.400;2024-03-08T03:32:18;10.30;99.90
23579;DHT22;11967;50.852;4.400;2024-03-08T03:34:47;10.30;99.90
23579;DHT22;11967;50.852;4.400;2024-03-08T03:37:12;10.20;99.90
23579;DHT22;11967;50.852;4.400;2024-03-08T03:39:39;10.20;99.90
23579;DHT22;11967;50.852;4.400;2024-03-08T03:42:17;10.20;99.90
23579;DHT22;11967;50.852;4.400;2024-03-08T03:44:47;10.10;99.90
23579;DHT22;11967;50.852;4.400;2024-03-08T03:47:13;10.10;99.90
23579;DHT22;11967;50.852;4.400;2024-03-08T03:49:40;10.10;99.90
23579;DHT22;11967;50.852;4.400;2024-03-08T03:52:06;10.10;99.90
23579;DHT22;11967;50.852;4.400;2024-03-08T03:54:32;10.10;99.90
23579;DHT22;11967;50.852;4.400;2024-03-08T03:56:58;10.10;99.90
23579;DHT22;11967;50.852;4.400;2024-03-08T03:59:24;10.10;99.90
23579;DHT22;11967;50.852;4.400;2024-03-08T04:01:50;10.10;99.90
23579;DHT22;11967;50.852;4.400;2024-03-08T04:04:17;10.10;99.90
23579;DHT22;11967;50.852;4.400;2024-03-08T04:06:43;10.10;99.90
23579;DHT22;11967;50.852;4.400;2024-03-08T04:09:10;10.10;99.90
23579;DHT22;11967;50.852;4.400;2024-03-08T04:11:38;10.00;99.90
23579;DHT22;11967;50.852;4.400;2024-03-08T04:14:03;10.00;99.90
23579;DHT22;11967;50.852;4.400;2024-03-08T04:16:31;10.00;99.90
23579;DHT22;11967;50.852;4.400;2024-03-08T04:18:59;10.10;99.90
23579;DHT22;11967;50.852;4.400;2024-03-08T04:21:30;10.00;99.90
23579;DHT22;11967;50.852;4.400;2024-03-08T04:23:55;10.10;99.90
23579;DHT22;11967;50.852;4.400;2024-03-08T04:26:21;10.00;99.90
23579;DHT22;11967;50.852;4.400;2024-03-08T04:28:47;9.90;99.90
23579;DHT22;11967;50.852;4.400;2024-03-08T04:31:13;9.90;99.90
23579;DHT22;11967;50.852;4.400;2024-03-08T04:33:38;9.90;99.90
23579;DHT22;11967;50.852;4.400;2024-03-08T04:36:04;9.90;99.90
23579;DHT22;11967;50.852;4.400;2024-03-08T04:38:30;9.80;99.90
23579;DHT22;11967;50.852;4.400;2024-03-08T04:40:57;9.90;99.90
23579;DHT22;11967;50.852;4.400;2024-03-08T04:43:23;9.90;99.90
23579;DHT22;11967;50.852;4.400;2024-03-08T04:45:52;9.90;99.90
23579;DHT22;11967;50.852;4.400;2024-03-08T04:48:19;9.90;99.90
23579;DHT22;11967;50.852;4.400;2024-03-08T04:50:45;9.80;99.90
23579;DHT22;11967;50.852;4.400;2024-03-08T04:53:11;9.90;99.90
23579;DHT22;11967;50.852;4.400;2024-03-08T04:55:37;9.80;99.90
23579;DHT22;11967;50.852;4.400;2024-03-08T04:58:03;9.70;99.90
23579;DHT22;11967;50.852;4.400;2024-03-08T05:00:31;9.80;99.90
23579;DHT22;11967;50.852;4.400;2024-03-08T05:02:58;9.80;99.90
23579;DHT22;11967;50.852;4.400;2024-03-08T05:05:23;9.70;99.90
23579;DHT22;11967;50.852;4.400;2024-03-08T05:07:51;9.70;99.90
23579;DHT22;11967;50.852;4.400;2024-03-08T05:10:17;9.80;99.90
23579;DHT22;11967;50.852;4.400;2024-03-08T05:12:45;9.70;99.90
23579;DHT22;11967;50.852;4.400;2024-03-08T05:15:11;9.70;99.90
23579;DHT22;11967;50.852;4.400;2024-03-08T05:17:37;9.80;99.90
23579;DHT22;11967;50.852;4.400;2024-03-08T05:20:03;9.70;99.90
23579;DHT22;11967;50.852;4.400;2024-03-08T05:22:29;9.70;99.90
23579;DHT22;11967;50.852;4.400;2024-03-08T05:24:55;9.70;99.90
23579;DHT22;11967;50.852;4.400;2024-03-08T05:27:21;9.70;99.90
23579;DHT22;11967;50.852;4.400;2024-03-08T05:29:46;9.70;99.90
23579;DHT22;11967;50.852;4.400;2024-03-08T05:32:12;9.70;99.90
23579;DHT22;11967;50.852;4.400;2024-03-08T05:34:38;9.60;99.90
23579;DHT22;11967;50.852;4.400;2024-03-08T05:37:04;9.60;99.90
23579;DHT22;11967;50.852;4.400;2024-03-08T05:39:29;9.60;99.90
23579;DHT22;11967;50.852;4.400;2024-03-08T05:41:55;9.60;99.90
23579;DHT22;11967;50.852;4.400;2024-03-08T05:44:21;9.60;99.90
23579;DHT22;11967;50.852;4.400;2024-03-08T05:46:47;9.60;99.90
23579;DHT22;11967;50.852;4.400;2024-03-08T05:49:13;9.50;99.90
23579;DHT22;11967;50.852;4.400;2024-03-08T05:51:39;9.60;99.90
23579;DHT22;11967;50.852;4.400;2024-03-08T05:54:07;9.50;99.90
23579;DHT22;11967;50.852;4.400;2024-03-08T05:56:36;9.50;99.90
23579;DHT22;11967;50.852;4.400;2024-03-08T05:59:02;9.50;99.90
23579;DHT22;11967;50.852;4.400;2024-03-08T06:01:28;9.50;99.90
23579;DHT22;11967;50.852;4.400;2024-03-08T06:03:55;9.40;99.90
23579;DHT22;11967;50.852;4.400;2024-03-08T06:06:24;9.40;99.90
23579;DHT22;11967;50.852;4.400;2024-03-08T06:08:51;9.40;99.90
23579;DHT22;11967;50.852;4.400;2024-03-08T06:11:18;9.40;99.90
23579;DHT22;11967;50.852;4.400;2024-03-08T06:13:47;9.40;99.90
23579;DHT22;11967;50.852;4.400;2024-03-08T06:16:13;9.30;99.90
23579;DHT22;11967;50.852;4.400;2024-03-08T06:18:39;9.40;99.90
23579;DHT22;11967;50.852;4.400;2024-03-08T06:21:06;9.40;99.90
23579;DHT22;11967;50.852;4.400;2024-03-08T06:23:33;9.30;99.90
23579;DHT22;11967;50.852;4.400;2024-03-08T06:25:59;9.40;99.90
23579;DHT22;11967;50.852;4.400;2024-03-08T06:28:25;9.30;99.90
23579;DHT22;11967;50.852;4.400;2024-03-08T06:30:51;9.30;99.90
23579;DHT22;11967;50.852;4.400;2024-03-08T06:33:17;9.40;99.90
23579;DHT22;11967;50.852;4.400;2024-03-08T06:35:43;9.50;99.90
23579;DHT22;11967;50.852;4.400;2024-03-08T06:38:09;9.50;99.90
23579;DHT22;11967;50.852;4.400;2024-03-08T06:40:37;9.50;99.90
23579;DHT22;11967;50.852;4.400;2024-03-08T06:43:02;9.50;99.90
23579;DHT22;11967;50.852;4.400;2024-03-08T06:45:31;9.50;99.90
23579;DHT22;11967;50.852;4.400;2024-03-08T06:47:57;9.40;99.90
23579;DHT22;11967;50.852;4.400;2024-03-08T06:50:23;9.40;99.90
23579;DHT22;11967;50.852;4.400;2024-03-08T06:52:48;9.30;99.90
23579;DHT22;11967;50.852;4.400;2024-03-08T06:55:22;9.40;99.90
23579;DHT22;11967;50.852;4.400;2024-03-08T06:57:47;9.40;99.90
23579;DHT22;11967;50.852;4.400;2024-03-08T07:00:17;9.40;99.90
23579;DHT22;11967;50.852;4.400;2024-03-08T07:02:44;9.40;99.90
23579;DHT22;11967;50.852;4.400;2024-03-08T07:05:19;9.40;99.90
23579;DHT22;11967;50.852;4.400;2024-03-08T07:07:45;9.50;99.90
23579;DHT22;11967;50.852;4.400;2024-03-08T07:10:13;9.60;99.90
23579;DHT22;11967;50.852;4.400;2024-03-08T07:12:41;9.50;99.90
23579;DHT22;11967;50.852;4.400;2024-03-08T07:15:08;9.50;99.90
23579;DHT22;11967;50.852;4.400;2024-03-08T07:17:34;9.60;99.90
23579;DHT22;11967;50.852;4.400;2024-03-08T07:20:00;9.50;99.90
23579;DHT22;11967;50.852;4.400;2024-03-08T07:22:32;9.50;99.90
23579;DHT22;11967;50.852;4.400;2024-03-08T07:24:58;9.50;99.90
23579;DHT22;11967;50.852;4.400;2024-03-08T07:27:44;9.50;99.90
23579;DHT22;11967;50.852;4.400;2024-03-08T07:30:10;9.50;99.90
23579;DHT22;11967;50.852;4.400;2024-03-08T07:32:36;9.40;99.90
23579;DHT22;11967;50.852;4.400;2024-03-08T07:35:02;9.50;99.90
23579;DHT22;11967;50.852;4.400;2024-03-08T07:37:29;9.50;99.90
23579;DHT22;11967;50.852;4.400;2024-03-08T07:39:54;9.50;99.90
23579;DHT22;11967;50.852;4.400;2024-03-08T07:42:20;9.60;99.90
23579;DHT22;11967;50.852;4.400;2024-03-08T07:44:48;9.60;99.90
23579;DHT22;11967;50.852;4.400;2024-03-08T07:47:15;9.70;99.90
23579;DHT22;11967;50.852;4.400;2024-03-08T07:49:43;9.70;99.90
23579;DHT22;11967;50.852;4.400;2024-03-08T07:52:09;9.80;99.90
23579;DHT22;11967;50.852;4.400;2024-03-08T07:54:41;9.70;99.90
23579;DHT22;11967;50.852;4.400;2024-03-08T07:57:06;9.80;99.90
23579;DHT22;11967;50.852;4.400;2024-03-08T07:59:32;9.70;99.90
23579;DHT22;11967;50.852;4.400;2024-03-08T08:01:59;9.60;99.90
23579;DHT22;11967;50.852;4.400;2024-03-08T08:04:25;9.60;99.90
23579;DHT22;11967;50.852;4.400;2024-03-08T08:06:51;9.60;99.90
23579;DHT22;11967;50.852;4.400;2024-03-08T08:09:18;9.60;99.90
23579;DHT22;11967;50.852;4.400;2024-03-08T08:11:54;9.70;99.90
23579;DHT22;11967;50.852;4.400;2024-03-08T08:14:20;9.70;99.90
23579;DHT22;11967;50.852;4.400;2024-03-08T08:16:47;9.70;99.90
23579;DHT22;11967;50.852;4.400;2024-03-08T08:19:14;9.80;99.90
23579;DHT22;11967;50.852;4.400;2024-03-08T08:21:41;9.90;99.90
23579;DHT22;11967;50.852;4.400;2024-03-08T08:24:07;9.80;99.90
23579;DHT22;11967;50.852;4.400;2024-03-08T08:26:32;9.90;99.90
23579;DHT22;11967;50.852;4.400;2024-03-08T08:28:59;9.90;99.90
23579;DHT22;11967;50.852;4.400;2024-03-08T08:31:25;9.90;99.90
23579;DHT22;11967;50.852;4.400;2024-03-08T08:33:53;10.00;99.90
23579;DHT22;11967;50.852;4.400;2024-03-08T08:36:24;10.00;99.90
23579;DHT22;11967;50.852;4.400;2024-03-08T08:38:50;10.00;99.90
23579;DHT22;11967;50.852;4.400;2024-03-08T08:41:15;10.00;99.90
23579;DHT22;11967;50.852;4.400;2024-03-08T08:43:43;10.20;99.90
23579;DHT22;11967;50.852;4.400;2024-03-08T08:46:11;10.20;99.90
23579;DHT22;11967;50.852;4.400;2024-03-08T08:48:40;10.10;99.90
23579;DHT22;11967;50.852;4.400;2024-03-08T08:51:13;10.20;99.90
23579;DHT22;11967;50.852;4.400;2024-03-08T08:53:40;10.10;99.90
23579;DHT22;11967;50.852;4.400;2024-03-08T08:56:11;10.20;99.90
23579;DHT22;11967;50.852;4.400;2024-03-08T08:58:39;10.20;99.90
23579;DHT22;11967;50.852;4.400;2024-03-08T09:01:06;10.30;99.90
23579;DHT22;11967;50.852;4.400;2024-03-08T09:03:33;10.40;99.90
23579;DHT22;11967;50.852;4.400;2024-03-08T09:06:00;10.50;99.90
23579;DHT22;11967;50.852;4.400;2024-03-08T09:08:28;10.50;99.90
23579;DHT22;11967;50.852;4.400;2024-03-08T09:10:54;10.60;99.90
23579;DHT22;11967;50.852;4.400;2024-03-08T09:13:20;10.60;99.90
23579;DHT22;11967;50.852;4.400;2024-03-08T09:15:47;10.60;99.90
23579;DHT22;11967;50.852;4.400;2024-03-08T09:18:13;10.80;99.90
23579;DHT22;11967;50.852;4.400;2024-03-08T09:20:38;10.80;99.90
23579;DHT22;11967;50.852;4.400;2024-03-08T09:23:06;10.90;99.90
23579;DHT22;11967;50.852;4.400;2024-03-08T09:25:33;11.10;99.90
23579;DHT22;11967;50.852;4.400;2024-03-08T09:27:59;11.20;99.90
23579;DHT22;11967;50.852;4.400;2024-03-08T09:30:25;11.30;99.90
23579;DHT22;11967;50.852;4.400;2024-03-08T09:32:51;11.40;99.90
23579;DHT22;11967;50.852;4.400;2024-03-08T09:35:16;11.50;99.90
23579;DHT22;11967;50.852;4.400;2024-03-08T09:37:42;11.60;99.90
23579;DHT22;11967;50.852;4.400;2024-03-08T09:40:08;11.70;99.90
23579;DHT22;11967;50.852;4.400;2024-03-08T09:42:41;11.80;99.90
23579;DHT22;11967;50.852;4.400;2024-03-08T09:45:11;11.90;99.90
23579;DHT22;11967;50.852;4.400;2024-03-08T09:47:42;12.00;99.90
23579;DHT22;11967;50.852;4.400;2024-03-08T09:50:09;12.10;99.90
23579;DHT22;11967;50.852;4.400;2024-03-08T09:52:40;12.20;99.90
23579;DHT22;11967;50.852;4.400;2024-03-08T09:55:07;12.40;99.90
23579;DHT22;11967;50.852;4.400;2024-03-08T09:57:33;12.50;99.90
23579;DHT22;11967;50.852;4.400;2024-03-08T09:59:59;12.60;99.90
23579;DHT22;11967;50.852;4.400;2024-03-08T10:02:25;12.70;99.90
23579;DHT22;11967;50.852;4.400;2024-03-08T10:04:51;12.70;99.90
23579;DHT22;11967;50.852;4.400;2024-03-08T10:07:19;12.80;99.90
23579;DHT22;11967;50.852;4.400;2024-03-08T10:09:44;12.80;99.90
23579;DHT22;11967;50.852;4.400;2024-03-08T10:12:18;12.70;99.90
23579;DHT22;11967;50.852;4.400;2024-03-08T10:14:45;13.00;99.90
23579;DHT22;11967;50.852;4.400;2024-03-08T10:17:12;13.10;99.90
23579;DHT22;11967;50.852;4.400;2024-03-08T10:19:49;13.40;99.90
23579;DHT22;11967;50.852;4.400;2024-03-08T10:22:16;13.50;99.90
23579;DHT22;11967;50.852;4.400;2024-03-08T10:24:41;13.60;99.90
23579;DHT22;11967;50.852;4.400;2024-03-08T10:27:10;13.70;99.90
23579;DHT22;11967;50.852;4.400;2024-03-08T10:29:36;13.80;99.90
23579;DHT22;11967;50.852;4.400;2024-03-08T10:32:04;14.10;99.90
23579;DHT22;11967;50.852;4.400;2024-03-08T10:34:32;14.00;99.90
23579;DHT22;11967;50.852;4.400;2024-03-08T10:37:03;14.10;99.90
23579;DHT22;11967;50.852;4.400;2024-03-08T10:39:36;14.20;99.90
23579;DHT22;11967;50.852;4.400;2024-03-08T10:42:04;14.00;99.90
23579;DHT22;11967;50.852;4.400;2024-03-08T10:47:12;14.10;99.90
23579;DHT22;11967;50.852;4.400;2024-03-08T10:49:54;14.10;99.90
23579;DHT22;11967;50.852;4.400;2024-03-08T10:52:20;14.10;99.90
23579;DHT22;11967;50.852;4.400;2024-03-08T10:54:48;14.20;99.90
23579;DHT22;11967;50.852;4.400;2024-03-08T10:57:18;14.10;99.90
23579;DHT22;11967;50.852;4.400;2024-03-08T10:59:46;14.10;99.90
23579;DHT22;11967;50.852;4.400;2024-03-08T11:02:12;14.30;99.90
23579;DHT22;11967;50.852;4.400;2024-03-08T11:04:38;14.40;99.90
23579;DHT22;11967;50.852;4.400;2024-03-08T11:07:04;14.60;99.90
23579;DHT22;11967;50.852;4.400;2024-03-08T11:09:35;14.60;99.90
23579;DHT22;11967;50.852;4.400;2024-03-08T11:12:27;14.70;99.90
23579;DHT22;11967;50.852;4.400;2024-03-08T11:15:02;14.70;99.90
23579;DHT22;11967;50.852;4.400;2024-03-08T11:20:11;14.80;99.90
23579;DHT22;11967;50.852;4.400;2024-03-08T11:22:50;15.20;99.90
23579;DHT22;11967;50.852;4.400;2024-03-08T11:25:38;15.50;99.90
23579;DHT22;11967;50.852;4.400;2024-03-08T11:28:19;15.90;99.90
23579;DHT22;11967;50.852;4.400;2024-03-08T11:30:47;16.00;99.90
23579;DHT22;11967;50.852;4.400;2024-03-08T11:33:16;16.20;99.90
23579;DHT22;11967;50.852;4.400;2024-03-08T11:35:43;16.40;99.90
23579;DHT22;11967;50.852;4.400;2024-03-08T11:38:11;16.50;99.90
23579;DHT22;11967;50.852;4.400;2024-03-08T11:40:39;16.60;99.90
23579;DHT22;11967;50.852;4.400;2024-03-08T11:43:05;16.70;99.90
23579;DHT22;11967;50.852;4.400;2024-03-08T11:45:34;16.80;99.90
23579;DHT22;11967;50.852;4.400;2024-03-08T11:48:02;16.90;99.90
23579;DHT22;11967;50.852;4.400;2024-03-08T11:50:29;16.90;99.90
23579;DHT22;11967;50.852;4.400;2024-03-08T11:53:03;16.80;99.50
23579;DHT22;11967;50.852;4.400;2024-03-08T11:55:33;16.70;99.40
23579;DHT22;11967;50.852;4.400;2024-03-08T11:58:04;16.60;99.70
23579;DHT22;11967;50.852;4.400;2024-03-08T12:00:31;16.50;99.30
23579;DHT22;11967;50.852;4.400;2024-03-08T12:03:05;16.60;99.70
23579;DHT22;11967;50.852;4.400;2024-03-08T12:05:32;16.60;98.80
23579;DHT22;11967;50.852;4.400;2024-03-08T12:08:01;16.40;98.60
23579;DHT22;11967;50.852;4.400;2024-03-08T12:10:29;16.30;99.00
23579;DHT22;11967;50.852;4.400;2024-03-08T12:12:57;16.20;99.70
23579;DHT22;11967;50.852;4.400;2024-03-08T12:15:25;16.30;99.70
23579;DHT22;11967;50.852;4.400;2024-03-08T12:17:52;16.40;98.70
23579;DHT22;11967;50.852;4.400;2024-03-08T12:20:25;16.40;98.90
23579;DHT22;11967;50.852;4.400;2024-03-08T12:22:52;16.40;99.00
23579;DHT22;11967;50.852;4.400;2024-03-08T12:25:18;16.40;99.10
23579;DHT22;11967;50.852;4.400;2024-03-08T12:27:46;16.50;99.20
23579;DHT22;11967;50.852;4.400;2024-03-08T12:32:56;16.50;99.70
23579;DHT22;11967;50.852;4.400;2024-03-08T12:35:26;16.70;99.90
23579;DHT22;11967;50.852;4.400;2024-03-08T12:37:53;16.90;99.90
23579;DHT22;11967;50.852;4.400;2024-03-08T12:40:30;17.00;99.90
23579;DHT22;11967;50.852;4.400;2024-03-08T12:42:57;17.00;99.90
23579;DHT22;11967;50.852;4.400;2024-03-08T12:45:24;16.90;99.90
23579;DHT22;11967;50.852;4.400;2024-03-08T12:47:53;17.10;99.90
23579;DHT22;11967;50.852;4.400;2024-03-08T12:50:20;17.20;99.90
23579;DHT22;11967;50.852;4.400;2024-03-08T12:52:46;17.30;99.90
23579;DHT22;11967;50.852;4.400;2024-03-08T12:55:12;17.30;99.90
23579;DHT22;11967;50.852;4.400;2024-03-08T12:57:39;17.40;99.90
23579;DHT22;11967;50.852;4.400;2024-03-08T13:00:06;17.30;99.90
23579;DHT22;11967;50.852;4.400;2024-03-08T13:02:38;17.20;99.20
23579;DHT22;11967;50.852;4.400;2024-03-08T13:05:05;17.20;99.40
23579;DHT22;11967;50.852;4.400;2024-03-08T13:07:31;17.20;98.80
23579;DHT22;11967;50.852;4.400;2024-03-08T13:09:57;17.30;99.20
23579;DHT22;11967;50.852;4.400;2024-03-08T13:12:25;17.30;99.30
23579;DHT22;11967;50.852;4.400;2024-03-08T13:14:51;17.30;99.50
23579;DHT22;11967;50.852;4.400;2024-03-08T13:17:17;17.40;99.30
23579;DHT22;11967;50.852;4.400;2024-03-08T13:19:44;17.40;99.00
23579;DHT22;11967;50.852;4.400;2024-03-08T13:22:10;17.40;99.50
23579;DHT22;11967;50.852;4.400;2024-03-08T13:24:39;17.30;98.80
23579;DHT22;11967;50.852;4.400;2024-03-08T13:27:07;17.30;99.30
23579;DHT22;11967;50.852;4.400;2024-03-08T13:29:45;17.30;99.10
23579;DHT22;11967;50.852;4.400;2024-03-08T13:32:12;17.50;99.90
23579;DHT22;11967;50.852;4.400;2024-03-08T13:34:41;17.70;99.90
23579;DHT22;11967;50.852;4.400;2024-03-08T13:37:06;18.00;99.90
23579;DHT22;11967;50.852;4.400;2024-03-08T13:39:32;18.30;99.90
23579;DHT22;11967;50.852;4.400;2024-03-08T13:42:09;18.40;99.90
23579;DHT22;11967;50.852;4.400;2024-03-08T13:44:46;18.40;99.90
23579;DHT22;11967;50.852;4.400;2024-03-08T13:47:16;18.50;99.90
23579;DHT22;11967;50.852;4.400;2024-03-08T13:49:43;18.60;99.90
23579;DHT22;11967;50.852;4.400;2024-03-08T13:52:12;18.70;99.90
23579;DHT22;11967;50.852;4.400;2024-03-08T13:54:42;18.70;99.70
23579;DHT22;11967;50.852;4.400;2024-03-08T13:57:08;18.80;99.90
23579;DHT22;11967;50.852;4.400;2024-03-08T13:59:34;19.00;99.90
23579;DHT22;11967;50.852;4.400;2024-03-08T14:02:04;19.20;99.90
23579;DHT22;11967;50.852;4.400;2024-03-08T14:04:29;19.10;97.50
23579;DHT22;11967;50.852;4.400;2024-03-08T14:06:55;19.00;97.60
23579;DHT22;11967;50.852;4.400;2024-03-08T14:09:30;19.10;97.10
23579;DHT22;11967;50.852;4.400;2024-03-08T14:11:56;19.10;96.60
23579;DHT22;11967;50.852;4.400;2024-03-08T14:14:24;19.10;96.40
23579;DHT22;11967;50.852;4.400;2024-03-08T14:16:50;19.10;96.10
23579;DHT22;11967;50.852;4.400;2024-03-08T14:19:20;19.10;96.40
23579;DHT22;11967;50.852;4.400;2024-03-08T14:21:47;19.10;96.50
23579;DHT22;11967;50.852;4.400;2024-03-08T14:24:17;19.10;95.60
23579;DHT22;11967;50.852;4.400;2024-03-08T14:26:44;19.00;97.00
23579;DHT22;11967;50.852;4.400;2024-03-08T14:29:10;18.90;97.50
23579;DHT22;11967;50.852;4.400;2024-03-08T14:31:37;19.00;98.10
23579;DHT22;11967;50.852;4.400;2024-03-08T14:34:40;19.10;98.10
23579;DHT22;11967;50.852;4.400;2024-03-08T14:37:05;19.20;98.00
23579;DHT22;11967;50.852;4.400;2024-03-08T14:39:36;19.20;97.40
23579;DHT22;11967;50.852;4.400;2024-03-08T14:42:02;19.20;97.30
23579;DHT22;11967;50.852;4.400;2024-03-08T14:44:29;19.20;96.40
23579;DHT22;11967;50.852;4.400;2024-03-08T14:46:59;19.20;96.40
23579;DHT22;11967;50.852;4.400;2024-03-08T14:49:25;19.20;96.90
23579;DHT22;11967;50.852;4.400;2024-03-08T14:51:54;19.20;95.80
23579;DHT22;11967;50.852;4.400;2024-03-08T14:54:20;19.20;95.20
23579;DHT22;11967;50.852;4.400;2024-03-08T14:56:48;19.20;95.90
23579;DHT22;11967;50.852;4.400;2024-03-08T14:59:16;19.30;95.20
23579;DHT22;11967;50.852;4.400;2024-03-08T15:01:42;19.40;96.00
23579;DHT22;11967;50.852;4.400;2024-03-08T15:04:09;19.40;95.20
23579;DHT22;11967;50.852;4.400;2024-03-08T15:06:38;19.30;96.00
23579;DHT22;11967;50.852;4.400;2024-03-08T15:09:05;19.30;95.80
23579;DHT22;11967;50.852;4.400;2024-03-08T15:11:38;19.40;96.20
23579;DHT22;11967;50.852;4.400;2024-03-08T15:14:05;19.40;93.90
23579;DHT22;11967;50.852;4.400;2024-03-08T15:16:37;19.20;94.70
23579;DHT22;11967;50.852;4.400;2024-03-08T15:19:05;19.20;93.70
23579;DHT22;11967;50.852;4.400;2024-03-08T15:21:31;19.10;94.70
23579;DHT22;11967;50.852;4.400;2024-03-08T15:23:58;19.00;91.60
23579;DHT22;11967;50.852;4.400;2024-03-08T15:26:23;18.70;91.40
23579;DHT22;11967;50.852;4.400;2024-03-08T15:28:51;18.60;91.80
23579;DHT22;11967;50.852;4.400;2024-03-08T15:31:17;18.40;91.90
23579;DHT22;11967;50.852;4.400;2024-03-08T15:33:46;18.20;92.00
23579;DHT22;11967;50.852;4.400;2024-03-08T15:36:17;18.00;92.40
23579;DHT22;11967;50.852;4.400;2024-03-08T15:38:43;17.80;92.90
23579;DHT22;11967;50.852;4.400;2024-03-08T15:41:14;17.70;93.10
23579;DHT22;11967;50.852;4.400;2024-03-08T15:43:40;17.60;93.40
23579;DHT22;11967;50.852;4.400;2024-03-08T15:46:08;17.50;93.50
23579;DHT22;11967;50.852;4.400;2024-03-08T15:48:35;17.40;93.50